Time;durP1;ratioP1;P1;durP2;ratioP2;P2;SDS_P1;SDS_P2;PMS_P1;PMS_P2;Temp;Humidity;BMP_temperature;BMP_pressure;BME280_temperature;BME280_humidity;BME280_pressure;Samples;Min_cycle;Max_cycle;Signal;HPM_P1;HPM_P2
2021/12/02 00:09:48;;;;;;;2.20;0.90;;;;;;;18.67;32.89;97384.47;5193613;27;20341;-75
2021/12/02 00:12:14;;;;;;;2.92;0.90;;;;;;;18.74;32.81;97398.59;5159807;27;20121;-74
2021/12/02 00:14:43;;;;;;;1.27;0.80;;;;;;;18.81;33.26;97402.00;5150772;27;20042;-72
2021/12/02 00:17:36;;;;;;;3.20;0.60;;;;;;;18.85;33.04;97397.81;5150911;27;20019;-70
2021/12/02 00:22:58;;;;;;;3.95;1.27;;;;;;;18.92;33.19;97395.06;5139292;27;20548;-66
2021/12/02 00:25:24;;;;;;;1.23;0.90;;;;;;;18.95;32.75;97408.03;5150258;27;20041;-70
2021/12/02 00:27:50;;;;;;;1.23;0.75;;;;;;;18.97;32.76;97405.13;5149810;27;20046;-70
2021/12/02 00:30:17;;;;;;;1.38;0.80;;;;;;;18.99;32.94;97411.88;5150342;27;20485;-70
2021/12/02 00:32:46;;;;;;;1.55;0.80;;;;;;;19.00;32.97;97423.44;5150916;27;20051;-73
2021/12/02 00:35:11;;;;;;;1.75;1.15;;;;;;;19.04;32.96;97414.69;5149681;27;20088;-71
2021/12/02 00:37:37;;;;;;;1.75;0.70;;;;;;;19.08;32.93;97420.41;5150012;27;20436;-73
2021/12/02 00:40:04;;;;;;;3.88;1.00;;;;;;;19.10;32.76;97418.31;5150965;27;20389;-76
2021/12/02 00:42:30;;;;;;;1.92;0.82;;;;;;;19.13;32.61;97414.34;5149667;27;20042;-73
2021/12/02 00:44:57;;;;;;;2.15;0.73;;;;;;;19.15;32.50;97436.41;5150986;27;20030;-72
2021/12/02 00:47:23;;;;;;;1.35;0.77;;;;;;;19.14;32.39;97449.00;5149417;27;20505;-62
2021/12/02 00:49:49;;;;;;;1.23;0.77;;;;;;;19.15;32.53;97447.97;5139649;27;20031;-65
2021/12/02 00:52:15;;;;;;;2.03;0.93;;;;;;;19.16;32.63;97459.47;5137893;27;20038;-64
2021/12/02 00:54:42;;;;;;;1.60;0.90;;;;;;;19.15;32.94;97456.00;5150753;27;20119;-69
2021/12/02 00:57:11;;;;;;;0.63;0.43;;;;;;;19.18;32.79;97460.91;5149713;27;20035;-63
2021/12/02 00:59:37;;;;;;;0.85;0.70;;;;;;;19.19;32.66;97467.88;5149893;27;20027;-63
2021/12/02 01:13:11;;;;;;;1.63;0.70;;;;;;;18.91;33.05;97471.94;5173375;27;20247;-72
2021/12/02 01:15:37;;;;;;;1.05;0.50;;;;;;;18.94;33.15;97476.06;5171248;27;20548;-67
2021/12/02 01:18:03;;;;;;;1.58;0.60;;;;;;;18.94;32.98;97478.75;5165628;27;20497;-67
2021/12/02 01:20:30;;;;;;;1.15;0.50;;;;;;;18.96;32.92;97476.66;5172014;27;20030;-69
2021/12/02 01:22:58;;;;;;;0.95;0.50;;;;;;;19.01;32.89;97486.69;5155525;27;20018;-64
2021/12/02 01:25:25;;;;;;;1.15;0.70;;;;;;;19.09;33.07;97491.75;5149374;27;20027;-69
2021/12/02 01:27:51;;;;;;;0.93;0.50;;;;;;;19.17;32.50;97496.81;5151206;27;20389;-65
2021/12/02 01:30:18;;;;;;;0.93;0.57;;;;;;;19.17;31.61;97495.97;5151046;27;20456;-74
2021/12/02 01:32:45;;;;;;;0.50;0.43;;;;;;;19.12;31.26;97496.66;5160591;27;20431;-74
2021/12/02 01:35:11;;;;;;;0.75;0.40;;;;;;;19.06;31.38;97509.09;5165714;27;20480;-73
2021/12/02 01:37:38;;;;;;;1.45;0.60;;;;;;;19.04;30.99;97499.66;5171053;27;20034;-72
2021/12/02 01:40:05;;;;;;;1.00;0.55;;;;;;;19.02;30.89;97512.47;5172518;27;20458;-72
2021/12/02 01:42:32;;;;;;;0.38;0.30;;;;;;;19.01;30.79;97513.50;5164062;27;20058;-73
2021/12/02 01:44:58;;;;;;;0.73;0.40;;;;;;;19.00;30.77;97509.19;5159642;27;20087;-70
2021/12/02 01:47:30;;;;;;;1.00;0.70;;;;;;;18.98;30.88;97511.28;5149703;27;20026;-64
2021/12/02 01:49:59;;;;;;;1.27;0.50;;;;;;;18.99;31.02;97503.00;5150858;27;20429;-69
2021/12/02 01:52:31;;;;;;;8.52;0.60;;;;;;;19.02;31.04;97504.41;5142347;27;20088;-69
2021/12/02 01:55:24;;;;;;;1.35;0.55;;;;;;;19.02;31.31;97504.41;5136780;27;20514;-68
2021/12/02 01:58:00;;;;;;;1.35;0.70;;;;;;;19.02;31.03;97504.41;5127222;27;20027;-68
2021/12/02 02:00:44;;;;;;;2.13;0.60;;;;;;;18.98;31.26;97501.34;5139898;27;20030;-68
2021/12/02 02:03:15;;;;;;;1.05;0.50;;;;;;;18.98;30.67;97519.31;5135382;27;20439;-68
2021/12/02 02:05:41;;;;;;;0.75;0.50;;;;;;;18.97;30.66;97515.00;5129152;27;20046;-68
2021/12/02 02:08:16;;;;;;;0.73;0.47;;;;;;;18.97;30.73;97510.44;5129659;27;20035;-69
2021/12/02 02:10:43;;;;;;;2.30;0.50;;;;;;;18.93;30.60;97511.91;5128852;27;20181;-68
2021/12/02 02:13:10;;;;;;;0.63;0.40;;;;;;;18.95;30.55;97527.78;5131995;27;20057;-69
2021/12/02 02:15:37;;;;;;;1.25;0.50;;;;;;;18.97;30.56;97533.75;5135271;27;20023;-68
2021/12/02 02:20:50;;;;;;;0.68;0.40;;;;;;;18.99;30.45;97537.03;5131381;27;20111;-68
2021/12/02 02:23:16;;;;;;;0.55;0.32;;;;;;;18.97;30.26;97542.59;5125826;27;20143;-69
2021/12/02 02:25:43;;;;;;;1.98;0.50;;;;;;;18.95;30.26;97544.69;5117874;27;20059;-69
2021/12/02 02:28:09;;;;;;;0.38;0.28;;;;;;;18.94;30.27;97544.88;5132539;27;20035;-69
2021/12/02 02:30:34;;;;;;;0.52;0.35;;;;;;;18.96;30.36;97542.81;5136851;27;20038;-69
2021/12/02 02:33:00;;;;;;;1.70;0.40;;;;;;;18.94;30.45;97552.91;5135261;27;20046;-69
2021/12/02 02:35:26;;;;;;;1.55;0.43;;;;;;;18.94;30.27;97551.09;5135991;27;20031;-69
2021/12/02 02:37:51;;;;;;;0.32;0.25;;;;;;;18.91;30.33;97546.16;5135185;27;20027;-69
2021/12/02 02:40:17;;;;;;;0.82;0.82;;;;;;;18.89;30.06;97545.56;5135511;27;20079;-69
2021/12/02 02:42:49;;;;;;;0.50;0.30;;;;;;;18.90;30.07;97550.69;5135856;27;20083;-70
2021/12/02 02:45:16;;;;;;;0.88;0.40;;;;;;;18.89;30.12;97553.59;5135812;27;20117;-69
2021/12/02 02:47:42;;;;;;;0.93;0.52;;;;;;;18.91;30.08;97563.03;5135276;27;20061;-70
2021/12/02 02:50:13;;;;;;;0.40;0.40;;;;;;;18.92;30.02;97555.84;5135757;27;20031;-70
2021/12/02 02:52:39;;;;;;;0.60;0.30;;;;;;;18.90;29.96;97550.69;5135005;27;20027;-69
2021/12/02 02:55:05;;;;;;;0.57;0.38;;;;;;;18.91;30.01;97557.69;5135913;27;20436;-69
2021/12/02 02:57:39;;;;;;;0.47;0.38;;;;;;;18.92;30.13;97564.69;5135557;27;20027;-69
2021/12/02 03:00:09;;;;;;;0.50;0.40;;;;;;;18.93;29.87;97560.16;5135718;27;20031;-69
2021/12/02 03:02:58;;;;;;;1.27;0.52;;;;;;;18.93;30.02;97565.50;5144755;27;20113;-69
2021/12/02 03:08:35;;;;;;;0.35;0.35;;;;;;;18.94;30.07;97572.53;5072094;28;20040;-69
2021/12/02 03:11:00;;;;;;;0.60;0.28;;;;;;;18.92;29.91;97570.03;5143293;27;20457;-69
2021/12/02 03:13:47;;;;;;;0.70;0.20;;;;;;;18.90;29.86;97580.16;5136331;27;20082;-69
2021/12/02 03:18:57;;;;;;;0.47;0.30;;;;;;;18.88;29.75;97576.91;5135390;27;20115;-69
2021/12/02 03:21:23;;;;;;;0.85;0.30;;;;;;;18.89;29.94;97573.19;5125083;27;20468;-69
2021/12/02 03:23:51;;;;;;;0.88;0.30;;;;;;;18.88;29.63;97579.59;5134604;27;20169;-69
2021/12/02 03:26:17;;;;;;;1.05;0.40;;;;;;;18.86;29.32;97576.31;5134597;27;20033;-70
2021/12/02 03:28:42;;;;;;;1.15;0.20;;;;;;;18.85;29.64;97573.81;5135194;27;20390;-69
2021/12/02 03:31:09;;;;;;;0.32;0.30;;;;;;;18.85;29.71;97579.19;5134331;27;20034;-69
2021/12/02 03:33:35;;;;;;;0.28;0.25;;;;;;;18.84;29.71;97586.41;5134766;27;20047;-69
2021/12/02 03:36:00;;;;;;;1.65;0.50;;;;;;;18.85;29.70;97585.38;5134015;27;20199;-69
2021/12/02 03:38:26;;;;;;;0.68;0.38;;;;;;;18.83;29.73;97586.63;5134757;27;20118;-69
2021/12/02 03:40:51;;;;;;;0.65;0.47;;;;;;;18.82;29.88;97588.50;5134710;27;20446;-69
2021/12/02 03:43:17;;;;;;;0.77;0.38;;;;;;;18.83;29.60;97592.81;5134314;27;20490;-68
2021/12/02 03:45:43;;;;;;;0.40;0.35;;;;;;;18.86;29.68;97596.91;5134162;27;20421;-70
2021/12/02 03:48:08;;;;;;;2.20;0.90;;;;;;;18.84;29.62;97597.13;5133665;27;20118;-70
2021/12/02 03:50:34;;;;;;;1.02;0.40;;;;;;;18.85;29.52;97604.13;5134810;27;20227;-70
2021/12/02 03:52:59;;;;;;;0.50;0.47;;;;;;;18.85;29.44;97600.63;5133634;27;20031;-69
2021/12/02 03:55:25;;;;;;;1.98;0.40;;;;;;;18.85;29.59;97606.81;5134348;27;20100;-69
2021/12/02 03:57:50;;;;;;;0.80;0.40;;;;;;;18.86;29.45;97613.81;5133597;27;20552;-69
2021/12/02 04:00:16;;;;;;;0.80;0.38;;;;;;;18.84;29.59;97607.84;5134454;27;20042;-69
2021/12/02 04:02:42;;;;;;;1.35;0.50;;;;;;;18.83;29.60;97614.25;5133376;27;20039;-70
2021/12/02 04:05:07;;;;;;;0.85;0.43;;;;;;;18.80;29.44;97619.25;5134161;27;20042;-70
2021/12/02 04:07:33;;;;;;;0.98;0.50;;;;;;;18.80;29.63;97619.25;5134366;27;20027;-70
2021/12/02 04:10:00;;;;;;;0.30;0.30;;;;;;;18.80;29.18;97616.56;5133765;27;20034;-70
2021/12/02 04:12:33;;;;;;;0.70;0.40;;;;;;;18.79;29.13;97623.78;5133212;27;20417;-70
2021/12/02 04:15:05;;;;;;;0.40;0.40;;;;;;;18.80;29.39;97636.13;5133840;27;20162;-70
2021/12/02 04:17:41;;;;;;;0.85;0.52;;;;;;;18.81;29.18;97632.41;5133616;27;20035;-69
2021/12/02 04:20:13;;;;;;;0.50;0.40;;;;;;;18.81;29.12;97631.59;5133693;27;20043;-72
2021/12/02 04:22:40;;;;;;;1.20;0.50;;;;;;;18.81;28.83;97631.59;5143037;27;20462;-70
2021/12/02 04:25:06;;;;;;;0.55;0.47;;;;;;;18.83;29.23;97641.06;5144173;27;20397;-72
2021/12/02 04:27:32;;;;;;;0.88;0.50;;;;;;;18.81;29.58;97635.09;5133000;27;20038;-70
2021/12/02 04:29:58;;;;;;;0.57;0.40;;;;;;;18.81;29.36;97645.00;5133805;27;20031;-70
2021/12/02 04:32:23;;;;;;;0.28;0.28;;;;;;;18.80;28.94;97641.47;5133556;27;20037;-70
2021/12/02 04:34:49;;;;;;;0.85;0.43;;;;;;;18.81;29.61;97635.09;5132785;27;20398;-68
2021/12/02 04:37:14;;;;;;;1.40;0.68;;;;;;;18.81;29.44;97647.69;5132964;27;20058;-68
2021/12/02 04:39:40;;;;;;;0.60;0.45;;;;;;;18.79;29.80;97650.56;5133630;27;20027;-69
2021/12/02 04:42:05;;;;;;;0.70;0.40;;;;;;;18.78;29.47;97642.75;5133617;27;20027;-70
2021/12/02 04:44:31;;;;;;;1.45;0.55;;;;;;;18.77;29.38;97649.97;5133319;27;20038;-71
2021/12/02 04:46:56;;;;;;;0.70;0.40;;;;;;;18.77;29.41;97649.97;5132665;27;20035;-70
2021/12/02 04:49:22;;;;;;;0.60;0.40;;;;;;;18.77;29.69;97649.97;5133254;27;20030;-71
2021/12/02 04:51:47;;;;;;;0.73;0.50;;;;;;;18.76;29.41;97656.34;5132994;27;20043;-71
2021/12/02 04:54:13;;;;;;;1.08;0.57;;;;;;;18.76;29.59;97653.69;5133205;27;20030;-70
2021/12/02 04:56:39;;;;;;;1.02;0.52;;;;;;;18.74;29.54;97658.47;5133017;27;20070;-69
2021/12/02 04:59:04;;;;;;;1.27;0.50;;;;;;;18.70;29.63;97652.69;5133172;27;20039;-70
2021/12/02 05:01:30;;;;;;;0.82;0.50;;;;;;;18.69;29.70;97660.97;5132799;27;20031;-70
2021/12/02 05:03:55;;;;;;;1.48;0.60;;;;;;;18.65;29.84;97668.63;5114444;28;20039;-70
2021/12/02 05:06:21;;;;;;;0.98;0.50;;;;;;;18.66;29.70;97664.91;5133295;27;20051;-69
2021/12/02 05:08:46;;;;;;;0.68;0.45;;;;;;;18.66;29.89;97666.75;5133133;28;20550;-69
2021/12/02 05:11:12;;;;;;;1.05;0.50;;;;;;;18.66;29.73;97662.22;5132630;27;20507;-70
2021/12/02 05:13:37;;;;;;;1.75;1.17;;;;;;;18.67;29.50;97671.06;5132839;28;20035;-71
2021/12/02 05:16:03;;;;;;;0.93;0.60;;;;;;;18.65;29.86;97675.81;5132698;27;20091;-71
2021/12/02 05:18:29;;;;;;;1.27;0.60;;;;;;;18.66;29.55;97680.16;5133046;28;20062;-70
2021/12/02 05:20:55;;;;;;;0.98;0.50;;;;;;;18.66;29.80;97680.16;5126692;28;20047;-70
2021/12/02 05:23:20;;;;;;;1.20;0.77;;;;;;;18.66;29.66;97672.13;5131517;27;20157;-70
2021/12/02 05:25:46;;;;;;;0.70;0.57;;;;;;;18.65;29.59;97687.38;5132812;27;20045;-70
2021/12/02 05:28:15;;;;;;;0.57;0.47;;;;;;;18.64;29.53;97672.34;5132155;27;20078;-69
2021/12/02 05:30:40;;;;;;;0.50;0.50;;;;;;;18.66;29.43;97683.66;5133096;28;20054;-69
2021/12/02 05:33:06;;;;;;;0.50;0.50;;;;;;;18.68;29.32;97691.47;5131950;27;20043;-69
2021/12/02 05:35:32;;;;;;;1.33;0.68;;;;;;;18.67;29.50;97693.34;5132366;27;20054;-70
2021/12/02 05:37:57;;;;;;;1.02;0.70;;;;;;;18.65;29.70;97698.09;5132341;27;20033;-70
2021/12/02 05:40:23;;;;;;;1.30;0.60;;;;;;;18.64;29.86;97698.28;5132989;28;20027;-70
2021/12/02 05:42:48;;;;;;;0.73;0.40;;;;;;;18.63;29.54;97710.03;5132107;27;20397;-70
2021/12/02 05:45:14;;;;;;;1.30;0.60;;;;;;;18.65;29.24;97718.69;5132842;28;20030;-69
2021/12/02 05:47:39;;;;;;;0.80;0.47;;;;;;;18.65;29.40;97719.53;5132646;27;20054;-71
2021/12/02 05:50:05;;;;;;;1.13;0.70;;;;;;;18.66;29.33;97715.81;5133016;28;20111;-69
2021/12/02 05:52:31;;;;;;;1.40;0.60;;;;;;;18.67;29.32;97722.81;5132504;27;20110;-69
2021/12/02 05:54:58;;;;;;;1.05;0.55;;;;;;;18.67;29.17;97728.16;5132604;28;20460;-69
2021/12/02 05:57:24;;;;;;;1.30;0.63;;;;;;;18.67;29.06;97727.31;5132425;27;20114;-69
2021/12/02 05:59:49;;;;;;;1.08;0.75;;;;;;;18.68;29.24;97718.25;5135816;27;20050;-70
2021/12/02 06:02:15;;;;;;;0.80;0.50;;;;;;;18.70;29.25;97718.88;5136513;27;20110;-72
2021/12/02 06:04:42;;;;;;;0.90;0.50;;;;;;;18.71;29.29;97732.03;5136557;27;20063;-70
2021/12/02 06:07:08;;;;;;;1.00;0.70;;;;;;;18.74;29.32;97733.47;5135972;27;20031;-71
2021/12/02 06:09:33;;;;;;;1.35;0.77;;;;;;;18.75;29.35;97730.56;5136530;27;20032;-70
2021/12/02 06:11:59;;;;;;;0.70;0.60;;;;;;;18.78;29.22;97731.16;5135934;27;20494;-70
2021/12/02 06:14:25;;;;;;;1.83;1.13;;;;;;;18.80;29.18;97735.25;5136393;27;20031;-71
2021/12/02 06:16:51;;;;;;;2.38;0.82;;;;;;;18.81;29.13;97739.59;5135730;27;20103;-70
2021/12/02 06:19:16;;;;;;;1.13;0.70;;;;;;;18.83;29.26;97752.75;5136084;27;20031;-72
2021/12/02 06:21:42;;;;;;;2.20;0.98;;;;;;;18.83;29.12;97742.88;5126505;27;20394;-71
2021/12/02 06:24:08;;;;;;;2.80;0.82;;;;;;;18.84;29.06;97757.91;5117580;27;20031;-71
2021/12/02 06:26:34;;;;;;;1.98;1.10;;;;;;;18.87;28.99;97762.00;5135756;27;20397;-71
2021/12/02 06:29:00;;;;;;;0.95;0.40;;;;;;;18.86;29.08;97763.88;5135999;27;20098;-70
2021/12/02 06:31:25;;;;;;;2.42;0.70;;;;;;;18.84;29.12;97776.66;5135543;27;20110;-70
2021/12/02 06:33:51;;;;;;;3.30;0.60;;;;;;;18.86;28.94;97766.56;5136574;27;20031;-70
2021/12/02 06:36:16;;;;;;;1.65;0.75;;;;;;;18.88;28.98;97774.34;5136270;27;20119;-70
2021/12/02 06:38:42;;;;;;;1.63;0.68;;;;;;;18.90;29.28;97773.09;5135741;27;20030;-71
2021/12/02 06:41:08;;;;;;;1.15;0.77;;;;;;;18.91;28.99;97771.25;5135437;27;20027;-70
2021/12/02 06:43:34;;;;;;;3.25;0.60;;;;;;;18.92;29.12;97778.25;5136208;27;20094;-70
2021/12/02 06:46:00;;;;;;;1.08;0.55;;;;;;;18.95;29.28;97777.03;5135779;27;20493;-70
2021/12/02 06:48:26;;;;;;;1.05;0.60;;;;;;;18.94;29.13;97773.53;5135517;27;20038;-70
2021/12/02 06:50:51;;;;;;;4.43;0.47;;;;;;;18.94;29.06;97780.72;5136200;27;20039;-70
2021/12/02 06:53:17;;;;;;;1.27;0.70;;;;;;;18.94;28.99;97776.22;5135516;27;20107;-71
2021/12/02 06:55:44;;;;;;;1.77;1.00;;;;;;;18.97;28.73;97774.94;5135502;27;20389;-70
2021/12/02 06:58:09;;;;;;;1.50;0.73;;;;;;;18.96;28.98;97774.13;5134901;27;20031;-70
2021/12/02 07:00:35;;;;;;;1.73;0.70;;;;;;;19.00;28.97;97769.16;5135293;27;20092;-71
2021/12/02 07:03:03;;;;;;;1.40;0.60;;;;;;;19.01;29.09;97765.44;5134637;27;20042;-71
2021/12/02 07:05:32;;;;;;;1.00;0.70;;;;;;;19.04;28.73;97775.72;5134912;27;20374;-71
2021/12/02 07:07:57;;;;;;;1.48;0.80;;;;;;;19.03;28.84;97768.72;5135012;27;20083;-70
2021/12/02 07:10:25;;;;;;;1.10;0.50;;;;;;;19.04;29.04;97759.66;5135201;27;20027;-70
2021/12/02 07:12:58;;;;;;;0.95;0.60;;;;;;;19.07;29.09;97764.53;5134344;27;20043;-70
2021/12/02 07:15:31;;;;;;;2.50;0.60;;;;;;;19.08;29.17;97770.75;5135241;27;20070;-70
2021/12/02 07:17:58;;;;;;;2.30;0.70;;;;;;;19.08;29.01;97776.91;5139112;27;20484;-70
2021/12/02 07:20:27;;;;;;;1.58;0.77;;;;;;;19.09;28.72;97780.44;5138349;27;20090;-70
2021/12/02 07:22:52;;;;;;;1.05;0.52;;;;;;;19.09;28.80;97775.88;5150193;27;20477;-70
2021/12/02 07:25:18;;;;;;;1.27;0.60;;;;;;;19.10;28.57;97779.38;5155581;27;20041;-70
2021/12/02 07:27:44;;;;;;;1.38;0.65;;;;;;;19.10;28.70;97772.16;5143801;27;20027;-70
2021/12/02 07:30:10;;;;;;;1.08;0.52;;;;;;;19.14;28.52;97759.97;5134571;27;20439;-72
2021/12/02 07:32:40;;;;;;;1.40;0.60;;;;;;;19.18;28.54;97765.69;5134885;27;20084;-71
2021/12/02 07:35:16;;;;;;;5.65;1.05;;;;;;;19.17;28.94;97759.53;5135372;27;20066;-69
2021/12/02 07:37:50;;;;;;;1.90;0.70;;;;;;;19.14;29.09;97765.31;5134233;27;20050;-71
2021/12/02 07:40:17;;;;;;;1.40;0.75;;;;;;;19.13;28.83;97771.72;5134343;27;20119;-70
2021/12/02 07:42:47;;;;;;;1.17;0.70;;;;;;;19.11;28.69;97771.13;5135151;27;20518;-70
2021/12/02 07:45:13;;;;;;;2.25;0.70;;;;;;;19.12;28.89;97770.06;5133956;27;20057;-70
2021/12/02 07:47:40;;;;;;;0.90;0.63;;;;;;;19.14;28.82;97770.69;5133863;27;20084;-70
2021/12/02 07:50:08;;;;;;;3.00;0.70;;;;;;;19.16;28.58;97763.25;5134594;27;20379;-68
2021/12/02 07:52:39;;;;;;;1.38;0.82;;;;;;;19.17;28.54;97775.59;5133834;27;20038;-70
2021/12/02 07:55:07;;;;;;;2.38;0.70;;;;;;;19.17;28.75;97770.25;5134002;27;20047;-69
2021/12/02 07:57:34;;;;;;;1.55;0.80;;;;;;;19.19;28.61;97775.38;5133908;27;20095;-69
2021/12/02 08:00:00;;;;;;;1.65;0.80;;;;;;;19.21;28.44;97767.94;5134133;27;20035;-71
2021/12/02 08:02:30;;;;;;;1.52;0.73;;;;;;;19.19;28.54;97776.19;5133334;27;20553;-69
2021/12/02 08:04:56;;;;;;;1.75;0.95;;;;;;;19.19;28.63;97773.50;5133857;27;20038;-70
2021/12/02 08:07:21;;;;;;;1.30;0.80;;;;;;;19.23;28.53;97762.34;5133980;27;20042;-68
2021/12/02 08:09:47;;;;;;;1.27;0.90;;;;;;;19.23;28.51;97759.66;5133765;27;20497;-69
2021/12/02 08:12:12;;;;;;;2.47;1.13;;;;;;;19.21;28.56;97760.69;5133524;27;20092;-70
2021/12/02 08:14:38;;;;;;;2.70;1.33;;;;;;;19.23;28.42;97751.63;5133539;27;20401;-69
2021/12/02 08:17:04;;;;;;;2.15;0.80;;;;;;;19.25;28.36;97746.84;5133651;27;20038;-67
2021/12/02 08:19:30;;;;;;;1.17;0.80;;;;;;;19.24;28.68;97745.22;5133956;27;20031;-69
2021/12/02 08:21:56;;;;;;;2.05;1.05;;;;;;;19.25;28.50;97754.91;5124626;27;20093;-69
2021/12/02 08:24:23;;;;;;;1.45;1.15;;;;;;;19.26;28.88;97757.38;5133759;27;20035;-68
2021/12/02 08:26:49;;;;;;;3.20;1.10;;;;;;;19.27;28.87;97742.09;5133426;27;20031;-71
2021/12/02 08:29:15;;;;;;;5.25;1.08;;;;;;;19.31;28.72;97743.31;5115245;27;20035;-69
2021/12/02 08:31:40;;;;;;;1.55;0.88;;;;;;;19.32;28.72;97739.59;5133621;27;20205;-70
2021/12/02 08:34:06;;;;;;;2.88;0.90;;;;;;;19.30;28.61;97736.31;5133434;27;20132;-70
2021/12/02 08:36:41;;;;;;;1.42;0.93;;;;;;;19.31;28.81;97743.31;5133591;27;20176;-70
2021/12/02 08:39:09;;;;;;;2.67;1.10;;;;;;;19.31;28.70;97754.03;5112804;28;20160;-69
2021/12/02 08:41:39;;;;;;;2.08;1.00;;;;;;;19.30;28.81;97750.50;5114462;27;20496;-69
2021/12/02 08:44:04;;;;;;;1.45;0.90;;;;;;;19.30;28.64;97736.31;5133207;27;20042;-70
2021/12/02 08:46:30;;;;;;;2.33;1.05;;;;;;;19.30;28.57;97730.94;5133164;27;20035;-71
2021/12/02 08:48:56;;;;;;;1.30;0.90;;;;;;;19.27;28.73;97716.09;5133318;27;20037;-70
2021/12/02 08:51:21;;;;;;;1.55;1.00;;;;;;;19.28;28.62;97720.41;5133457;27;20035;-70
2021/12/02 08:53:47;;;;;;;2.03;1.00;;;;;;;19.30;28.60;97722.91;5132681;27;20500;-71
2021/12/02 08:56:12;;;;;;;1.98;1.17;;;;;;;19.30;28.61;97712.16;5133220;27;20042;-71
2021/12/02 08:58:38;;;;;;;2.33;1.10;;;;;;;19.31;28.50;97719.16;5132452;27;20065;-68
2021/12/02 09:01:04;;;;;;;2.53;0.80;;;;;;;19.30;28.70;97721.03;5132661;27;20066;-70
2021/12/02 09:03:29;;;;;;;1.88;1.20;;;;;;;19.31;28.61;97721.84;5133318;27;20091;-69
2021/12/02 09:05:55;;;;;;;1.92;1.02;;;;;;;19.34;28.69;97729.44;5133320;27;20023;-70
2021/12/02 09:08:24;;;;;;;2.47;0.90;;;;;;;19.34;28.73;97724.06;5132874;27;20040;-69
2021/12/02 09:10:50;;;;;;;2.42;0.85;;;;;;;19.33;29.00;97720.56;5133158;27;20096;-70
2021/12/02 09:13:16;;;;;;;2.15;1.10;;;;;;;19.32;28.76;97731.53;5131965;27;20047;-70
2021/12/02 09:15:42;;;;;;;3.20;1.27;;;;;;;19.34;28.67;97721.38;5114566;28;20031;-69
2021/12/02 09:18:08;;;;;;;1.77;0.82;;;;;;;19.36;28.50;97721.97;5132608;27;20027;-67
2021/12/02 09:20:34;;;;;;;1.40;0.82;;;;;;;19.34;28.56;97724.06;5129540;28;20042;-69
2021/12/02 09:23:00;;;;;;;1.40;1.10;;;;;;;19.38;28.50;97735.19;5112192;28;20028;-67
2021/12/02 09:25:27;;;;;;;1.58;1.10;;;;;;;19.36;28.70;97728.19;5112541;28;20118;-70
2021/12/02 09:27:53;;;;;;;1.20;0.80;;;;;;;19.39;28.72;97734.16;5127990;27;20130;-71
2021/12/02 09:30:19;;;;;;;1.92;1.10;;;;;;;19.35;28.42;97726.53;5132627;28;20027;-68
2021/12/02 09:32:45;;;;;;;2.25;1.05;;;;;;;19.33;28.60;97720.56;5131792;27;20035;-66
2021/12/02 09:35:12;;;;;;;1.20;0.80;;;;;;;19.33;28.48;97711.72;5137229;27;20042;-69
2021/12/02 09:37:38;;;;;;;1.40;1.08;;;;;;;19.34;28.66;97697.25;5132886;27;20393;-66
2021/12/02 09:40:07;;;;;;;1.60;0.93;;;;;;;19.35;28.73;97696.22;5136551;27;20035;-69
2021/12/02 09:42:32;;;;;;;1.33;0.82;;;;;;;19.36;28.85;97693.31;5136044;27;20114;-70
2021/12/02 09:45:00;;;;;;;1.27;0.73;;;;;;;19.36;28.84;97693.31;5136706;27;20035;-68
2021/12/02 09:47:29;;;;;;;1.30;0.77;;;;;;;19.40;28.76;97698.25;5136235;27;20124;-69
2021/12/02 09:49:55;;;;;;;2.45;0.95;;;;;;;19.41;28.71;97694.53;5135822;27;20055;-69
2021/12/02 09:52:29;;;;;;;1.80;0.98;;;;;;;19.40;28.90;97684.84;5137212;27;20027;-69
2021/12/02 09:55:03;;;;;;;1.92;0.80;;;;;;;19.41;28.75;97689.97;5136239;27;20562;-68
2021/12/02 09:57:34;;;;;;;1.85;0.90;;;;;;;19.42;28.74;97674.69;5135919;27;20034;-70
2021/12/02 10:00:00;;;;;;;2.10;1.00;;;;;;;19.43;28.95;97687.88;5135422;27;20050;-69
2021/12/02 10:02:25;;;;;;;1.70;0.80;;;;;;;19.42;29.11;97683.56;5136193;27;20412;-68
2021/12/02 10:04:59;;;;;;;1.38;0.70;;;;;;;19.42;28.81;97680.88;5136103;27;20034;-71
2021/12/02 10:10:11;;;;;;;2.05;0.82;;;;;;;19.45;29.33;97679.59;5135709;27;20084;-67
2021/12/02 10:12:43;;;;;;;3.40;1.00;;;;;;;19.49;30.16;97672.75;5135553;27;20051;-67
2021/12/02 10:15:13;;;;;;;4.00;0.90;;;;;;;19.55;30.48;97668.34;5136046;27;20035;-68
2021/12/02 10:17:44;;;;;;;1.88;0.70;;;;;;;19.60;30.67;97663.13;5111991;27;20158;-67
2021/12/02 10:23:17;;;;;;;1.60;1.05;;;;;;;19.64;30.98;97667.00;5127369;27;20035;-67
2021/12/02 10:25:55;;;;;;;2.03;0.93;;;;;;;19.62;30.86;97675.28;5135864;27;20079;-70
2021/12/02 10:28:21;;;;;;;4.75;1.48;;;;;;;19.64;30.46;97673.19;5151887;27;20035;-69
2021/12/02 10:30:49;;;;;;;3.33;1.20;;;;;;;19.69;30.29;97675.19;5144689;27;20042;-68
2021/12/02 10:33:30;;;;;;;2.30;1.02;;;;;;;19.74;30.64;97671.81;5146212;27;20150;-68
2021/12/02 10:35:56;;;;;;;4.45;1.70;;;;;;;19.77;30.32;97668.69;5156368;27;20054;-68
2021/12/02 10:38:52;;;;;;;3.15;1.23;;;;;;;19.81;30.98;97665.31;5142047;27;20146;-69
2021/12/02 10:41:24;;;;;;;2.17;1.23;;;;;;;19.82;30.78;97656.22;5113585;27;20047;-71
2021/12/02 10:44:11;;;;;;;1.40;1.02;;;;;;;19.83;31.28;97660.56;5134086;27;20090;-70
2021/12/02 10:46:42;;;;;;;2.88;1.10;;;;;;;19.83;30.69;97649.81;5112584;27;20540;-66
2021/12/02 10:49:14;;;;;;;2.33;0.88;;;;;;;19.82;31.29;97648.19;5135403;27;20042;-64
2021/12/02 10:51:51;;;;;;;2.78;1.25;;;;;;;19.81;31.12;97643.84;5144903;27;20035;-74
2021/12/02 10:54:18;;;;;;;2.17;1.25;;;;;;;19.83;31.43;97649.81;5138385;27;20049;-69
2021/12/02 10:56:47;;;;;;;2.13;1.10;;;;;;;19.79;31.49;97637.91;5152724;27;20286;-69
2021/12/02 10:59:52;;;;;;;2.70;1.48;;;;;;;19.76;31.65;97642.91;5136326;27;20137;-66
2021/12/02 11:02:23;;;;;;;2.05;0.90;;;;;;;19.76;31.64;97637.53;5121292;27;20130;-67
2021/12/02 11:05:03;;;;;;;5.07;1.50;;;;;;;19.73;31.49;97635.31;5132812;27;20085;-68
2021/12/02 11:07:39;;;;;;;2.75;1.00;;;;;;;19.73;31.48;97640.66;5137883;27;20026;-68
2021/12/02 11:10:13;;;;;;;3.47;1.15;;;;;;;19.73;31.61;97644.19;5147749;27;20460;-68
2021/12/02 11:12:44;;;;;;;2.83;1.10;;;;;;;19.75;31.57;97630.53;5137374;27;20477;-68
2021/12/02 11:15:14;;;;;;;;;;;;;;;19.71;32.00;97638.22;5140412;27;20031;-69
2021/12/02 11:18:01;;;;;;;1.83;1.13;;;;;;;19.73;31.69;97630.78;5135007;27;19911;-69
2021/12/02 11:20:29;;;;;;;2.15;1.00;;;;;;;19.74;31.58;97632.41;5132438;27;20038;-67
2021/12/02 11:22:56;;;;;;;3.53;0.80;;;;;;;19.74;31.51;97628.88;5114210;28;20031;-68
2021/12/02 11:25:22;;;;;;;1.73;1.00;;;;;;;19.75;31.29;97619.81;5128403;27;20553;-67
2021/12/02 11:27:50;;;;;;;2.53;0.77;;;;;;;19.74;31.33;97621.69;5144925;27;20039;-71
2021/12/02 11:30:24;;;;;;;5.97;1.33;;;;;;;19.77;31.44;97621.22;5133923;27;20114;-65
2021/12/02 11:32:56;;;;;;;1.95;1.00;;;;;;;19.80;31.24;97617.25;5133808;27;20031;-66
2021/12/02 11:35:33;;;;;;;2.65;1.10;;;;;;;19.82;31.16;97605.25;5134559;27;20035;-68
2021/12/02 11:38:04;;;;;;;2.55;1.10;;;;;;;19.77;31.26;97597.06;5142427;27;20039;-68
2021/12/02 11:40:33;;;;;;;1.75;1.30;;;;;;;19.76;31.37;97606.16;5134178;27;20091;-68
2021/12/02 11:42:59;;;;;;;2.35;1.15;;;;;;;19.71;31.36;97586.41;5134257;27;20512;-68
2021/12/02 11:45:29;;;;;;;5.00;1.23;;;;;;;19.67;31.18;97576.16;5134116;27;20042;-68
2021/12/02 11:47:56;;;;;;;2.92;1.27;;;;;;;19.63;31.17;97580.34;5133680;27;20039;-68
2021/12/02 11:50:24;;;;;;;3.05;1.00;;;;;;;19.61;30.92;97570.88;5134081;27;20158;-68
2021/12/02 11:52:49;;;;;;;2.13;1.52;;;;;;;19.60;31.20;97569.25;5133496;27;20039;-67
2021/12/02 11:55:19;;;;;;;2.40;1.17;;;;;;;19.57;31.10;97565.13;5133858;27;20041;-67
2021/12/02 11:57:46;;;;;;;2.20;1.00;;;;;;;19.58;31.33;97571.34;5133911;27;20027;-67
2021/12/02 12:00:16;;;;;;;2.92;1.10;;;;;;;19.56;31.05;97571.53;5134199;27;20035;-68
2021/12/02 12:02:53;;;;;;;2.17;1.27;;;;;;;19.55;31.21;97571.78;5135757;27;20038;-68
2021/12/02 12:05:46;;;;;;;2.35;1.25;;;;;;;19.51;31.30;97576.78;5134311;27;20392;-68
2021/12/02 12:08:35;;;;;;;4.07;1.75;;;;;;;19.48;31.35;97574.56;5133301;27;20446;-67
2021/12/02 12:11:26;;;;;;;3.08;1.65;;;;;;;19.45;31.25;97567.78;5134356;27;20042;-67
2021/12/02 12:14:07;;;;;;;3.40;1.33;;;;;;;19.43;31.52;97561.84;5092843;28;20044;-67
2021/12/02 12:16:36;;;;;;;2.85;1.48;;;;;;;19.44;31.40;97562.63;5092413;28;20386;-67